sensor_id;sensor_type;location;lat;lon;timestamp;P1;durP1;ratioP1;P2;durP2;ratioP2
77423;SDS011;66494;47.172;14.678;2023-12-20T00:00:43;14.32;;;7.68;;
77423;SDS011;66494;47.172;14.678;2023-12-20T00:02:43;15.27;;;8.25;;
77423;SDS011;66494;47.172;14.678;2023-12-20T00:03:46;16.30;;;10.15;;
77423;SDS011;66494;47.172;14.678;2023-12-20T00:05:47;13.30;;;8.20;;
77423;SDS011;66494;47.172;14.678;2023-12-20T00:07:47;18.35;;;9.35;;
77423;SDS011;66494;47.172;14.678;2023-12-20T00:09:48;16.92;;;9.40;;
77423;SDS011;66494;47.172;14.678;2023-12-20T00:11:48;13.07;;;7.70;;
77423;SDS011;66494;47.172;14.678;2023-12-20T00:13:49;19.15;;;8.40;;
77423;SDS011;66494;47.172;14.678;2023-12-20T00:15:49;17.98;;;8.85;;
77423;SDS011;66494;47.172;14.678;2023-12-20T00:17:49;19.23;;;9.05;;
77423;SDS011;66494;47.172;14.678;2023-12-20T00:19:50;17.48;;;9.60;;
77423;SDS011;66494;47.172;14.678;2023-12-20T00:21:50;17.60;;;9.48;;
77423;SDS011;66494;47.172;14.678;2023-12-20T00:23:51;14.63;;;9.07;;
77423;SDS011;66494;47.172;14.678;2023-12-20T00:25:51;20.23;;;9.25;;
77423;SDS011;66494;47.172;14.678;2023-12-20T00:27:52;19.25;;;8.75;;
77423;SDS011;66494;47.172;14.678;2023-12-20T00:29:52;16.40;;;9.97;;
77423;SDS011;66494;47.172;14.678;2023-12-20T00:31:53;18.33;;;9.18;;
77423;SDS011;66494;47.172;14.678;2023-12-20T00:33:53;17.60;;;8.52;;
77423;SDS011;66494;47.172;14.678;2023-12-20T00:35:53;18.00;;;9.48;;
77423;SDS011;66494;47.172;14.678;2023-12-20T00:37:55;17.35;;;9.02;;
77423;SDS011;66494;47.172;14.678;2023-12-20T00:39:55;15.80;;;9.20;;
77423;SDS011;66494;47.172;14.678;2023-12-20T00:41:55;17.92;;;10.57;;
77423;SDS011;66494;47.172;14.678;2023-12-20T00:43:56;20.08;;;10.30;;
77423;SDS011;66494;47.172;14.678;2023-12-20T00:45:56;21.10;;;10.50;;
77423;SDS011;66494;47.172;14.678;2023-12-20T00:47:57;17.43;;;9.67;;
77423;SDS011;66494;47.172;14.678;2023-12-20T00:49:57;15.93;;;9.30;;
77423;SDS011;66494;47.172;14.678;2023-12-20T00:51:58;17.50;;;9.60;;
77423;SDS011;66494;47.172;14.678;2023-12-20T00:53:58;20.27;;;9.93;;
77423;SDS011;66494;47.172;14.678;2023-12-20T00:55:59;12.95;;;8.13;;
77423;SDS011;66494;47.172;14.678;2023-12-20T00:57:59;20.15;;;9.93;;
77423;SDS011;66494;47.172;14.678;2023-12-20T01:00:00;21.60;;;9.67;;
77423;SDS011;66494;47.172;14.678;2023-12-20T01:02:01;16.70;;;9.20;;
77423;SDS011;66494;47.172;14.678;2023-12-20T01:04:01;17.52;;;8.88;;
77423;SDS011;66494;47.172;14.678;2023-12-20T01:06:02;19.52;;;10.50;;
77423;SDS011;66494;47.172;14.678;2023-12-20T01:07:04;18.58;;;10.35;;
77423;SDS011;66494;47.172;14.678;2023-12-20T01:09:05;24.02;;;9.25;;
77423;SDS011;66494;47.172;14.678;2023-12-20T01:11:05;16.92;;;9.75;;
77423;SDS011;66494;47.172;14.678;2023-12-20T01:13:06;14.47;;;8.20;;
77423;SDS011;66494;47.172;14.678;2023-12-20T01:15:06;21.05;;;9.27;;
77423;SDS011;66494;47.172;14.678;2023-12-20T01:17:07;15.77;;;8.45;;
77423;SDS011;66494;47.172;14.678;2023-12-20T01:19:07;13.55;;;7.40;;
77423;SDS011;66494;47.172;14.678;2023-12-20T01:21:07;13.77;;;7.68;;
77423;SDS011;66494;47.172;14.678;2023-12-20T01:23:08;16.15;;;9.20;;
77423;SDS011;66494;47.172;14.678;2023-12-20T01:25:08;13.57;;;6.13;;
77423;SDS011;66494;47.172;14.678;2023-12-20T01:27:09;15.55;;;8.10;;
77423;SDS011;66494;47.172;14.678;2023-12-20T01:29:09;12.85;;;8.80;;
77423;SDS011;66494;47.172;14.678;2023-12-20T01:31:09;13.77;;;7.82;;
77423;SDS011;66494;47.172;14.678;2023-12-20T01:33:10;15.02;;;9.35;;
77423;SDS011;66494;47.172;14.678;2023-12-20T01:35:10;17.55;;;8.77;;
77423;SDS011;66494;47.172;14.678;2023-12-20T01:36:12;18.77;;;9.95;;
77423;SDS011;66494;47.172;14.678;2023-12-20T01:38:13;14.35;;;8.77;;
77423;SDS011;66494;47.172;14.678;2023-12-20T01:40:13;15.02;;;8.45;;
77423;SDS011;66494;47.172;14.678;2023-12-20T01:42:14;16.83;;;9.57;;
77423;SDS011;66494;47.172;14.678;2023-12-20T01:44:15;18.95;;;8.35;;
77423;SDS011;66494;47.172;14.678;2023-12-20T01:46:15;13.32;;;7.72;;
77423;SDS011;66494;47.172;14.678;2023-12-20T01:48:16;19.60;;;8.68;;
77423;SDS011;66494;47.172;14.678;2023-12-20T01:50:16;17.60;;;8.73;;
77423;SDS011;66494;47.172;14.678;2023-12-20T01:52:17;19.25;;;11.05;;
77423;SDS011;66494;47.172;14.678;2023-12-20T01:54:17;18.38;;;9.65;;
77423;SDS011;66494;47.172;14.678;2023-12-20T01:55:19;22.20;;;10.98;;
77423;SDS011;66494;47.172;14.678;2023-12-20T01:57:20;15.40;;;6.63;;
77423;SDS011;66494;47.172;14.678;2023-12-20T01:59:21;13.57;;;7.70;;
77423;SDS011;66494;47.172;14.678;2023-12-20T02:01:23;16.85;;;7.97;;
77423;SDS011;66494;47.172;14.678;2023-12-20T02:03:24;15.30;;;8.20;;
77423;SDS011;66494;47.172;14.678;2023-12-20T02:05:24;18.88;;;8.43;;
77423;SDS011;66494;47.172;14.678;2023-12-20T02:07:25;14.90;;;8.87;;
77423;SDS011;66494;47.172;14.678;2023-12-20T02:09:26;14.10;;;8.40;;
77423;SDS011;66494;47.172;14.678;2023-12-20T02:11:27;16.53;;;9.40;;
77423;SDS011;66494;47.172;14.678;2023-12-20T02:13:28;14.83;;;7.73;;
77423;SDS011;66494;47.172;14.678;2023-12-20T02:15:29;15.02;;;8.68;;
77423;SDS011;66494;47.172;14.678;2023-12-20T02:17:29;15.98;;;9.32;;
77423;SDS011;66494;47.172;14.678;2023-12-20T02:19:29;19.20;;;8.50;;
77423;SDS011;66494;47.172;14.678;2023-12-20T02:21:33;16.42;;;8.57;;
77423;SDS011;66494;47.172;14.678;2023-12-20T02:22:34;18.45;;;9.95;;
77423;SDS011;66494;47.172;14.678;2023-12-20T02:24:35;15.88;;;8.25;;
77423;SDS011;66494;47.172;14.678;2023-12-20T02:26:36;15.50;;;7.47;;
77423;SDS011;66494;47.172;14.678;2023-12-20T02:28:36;15.00;;;7.57;;
77423;SDS011;66494;47.172;14.678;2023-12-20T02:30:37;13.85;;;7.35;;
77423;SDS011;66494;47.172;14.678;2023-12-20T02:32:37;11.30;;;6.30;;
77423;SDS011;66494;47.172;14.678;2023-12-20T02:34:39;16.42;;;9.10;;
77423;SDS011;66494;47.172;14.678;2023-12-20T02:36:39;17.48;;;7.35;;
77423;SDS011;66494;47.172;14.678;2023-12-20T02:38:40;14.90;;;8.07;;
77423;SDS011;66494;47.172;14.678;2023-12-20T02:40:40;15.88;;;7.93;;
77423;SDS011;66494;47.172;14.678;2023-12-20T02:42:41;18.70;;;8.40;;
77423;SDS011;66494;47.172;14.678;2023-12-20T02:44:44;15.77;;;7.85;;
77423;SDS011;66494;47.172;14.678;2023-12-20T02:45:44;20.75;;;9.48;;
77423;SDS011;66494;47.172;14.678;2023-12-20T02:47:45;14.33;;;8.63;;
77423;SDS011;66494;47.172;14.678;2023-12-20T02:49:47;15.00;;;7.90;;
77423;SDS011;66494;47.172;14.678;2023-12-20T02:51:47;13.30;;;7.85;;
77423;SDS011;66494;47.172;14.678;2023-12-20T02:53:48;16.30;;;7.40;;
77423;SDS011;66494;47.172;14.678;2023-12-20T02:55:48;11.45;;;7.40;;
77423;SDS011;66494;47.172;14.678;2023-12-20T02:57:48;14.10;;;8.02;;
77423;SDS011;66494;47.172;14.678;2023-12-20T02:59:49;16.50;;;7.82;;
77423;SDS011;66494;47.172;14.678;2023-12-20T03:01:49;16.77;;;8.75;;
77423;SDS011;66494;47.172;14.678;2023-12-20T03:03:50;13.80;;;8.20;;
77423;SDS011;66494;47.172;14.678;2023-12-20T03:05:50;16.00;;;8.15;;
77423;SDS011;66494;47.172;14.678;2023-12-20T03:07:51;16.65;;;8.10;;
77423;SDS011;66494;47.172;14.678;2023-12-20T03:09:52;10.77;;;6.57;;
77423;SDS011;66494;47.172;14.678;2023-12-20T03:11:53;18.52;;;8.63;;
77423;SDS011;66494;47.172;14.678;2023-12-20T03:13:54;15.48;;;7.93;;
77423;SDS011;66494;47.172;14.678;2023-12-20T03:15:54;14.10;;;7.33;;
77423;SDS011;66494;47.172;14.678;2023-12-20T03:17:54;13.13;;;7.00;;
77423;SDS011;66494;47.172;14.678;2023-12-20T03:19:55;16.50;;;7.47;;
77423;SDS011;66494;47.172;14.678;2023-12-20T03:21:55;17.50;;;8.02;;
77423;SDS011;66494;47.172;14.678;2023-12-20T03:23:56;13.35;;;7.38;;
77423;SDS011;66494;47.172;14.678;2023-12-20T03:25:56;11.85;;;6.60;;
77423;SDS011;66494;47.172;14.678;2023-12-20T03:27:56;13.77;;;7.32;;
77423;SDS011;66494;47.172;14.678;2023-12-20T03:29:57;15.25;;;7.80;;
77423;SDS011;66494;47.172;14.678;2023-12-20T03:31:57;15.07;;;7.75;;
77423;SDS011;66494;47.172;14.678;2023-12-20T03:33:58;21.45;;;9.15;;
77423;SDS011;66494;47.172;14.678;2023-12-20T03:35:58;39.40;;;13.32;;
77423;SDS011;66494;47.172;14.678;2023-12-20T03:37:58;29.75;;;11.75;;
77423;SDS011;66494;47.172;14.678;2023-12-20T03:39:00;28.65;;;10.57;;
77423;SDS011;66494;47.172;14.678;2023-12-20T03:41:00;20.52;;;10.13;;
77423;SDS011;66494;47.172;14.678;2023-12-20T03:43:01;27.55;;;10.50;;
77423;SDS011;66494;47.172;14.678;2023-12-20T03:45:01;46.00;;;14.00;;
77423;SDS011;66494;47.172;14.678;2023-12-20T03:47:03;34.25;;;12.05;;
77423;SDS011;66494;47.172;14.678;2023-12-20T03:49:04;22.25;;;10.63;;
77423;SDS011;66494;47.172;14.678;2023-12-20T03:51:04;22.58;;;10.60;;
77423;SDS011;66494;47.172;14.678;2023-12-20T03:53:04;23.20;;;10.35;;
77423;SDS011;66494;47.172;14.678;2023-12-20T03:55:05;31.35;;;10.15;;
77423;SDS011;66494;47.172;14.678;2023-12-20T03:57:05;26.37;;;9.60;;
77423;SDS011;66494;47.172;14.678;2023-12-20T03:59:06;25.85;;;10.13;;
77423;SDS011;66494;47.172;14.678;2023-12-20T04:01:13;17.02;;;9.00;;
77423;SDS011;66494;47.172;14.678;2023-12-20T04:02:13;25.63;;;10.65;;
77423;SDS011;66494;47.172;14.678;2023-12-20T04:04:14;22.77;;;8.75;;
77423;SDS011;66494;47.172;14.678;2023-12-20T04:06:17;19.95;;;10.13;;
77423;SDS011;66494;47.172;14.678;2023-12-20T04:07:18;21.65;;;8.52;;
77423;SDS011;66494;47.172;14.678;2023-12-20T04:09:18;22.92;;;10.05;;
77423;SDS011;66494;47.172;14.678;2023-12-20T04:11:18;27.58;;;8.93;;
77423;SDS011;66494;47.172;14.678;2023-12-20T04:13:19;20.25;;;9.18;;
77423;SDS011;66494;47.172;14.678;2023-12-20T04:15:19;14.23;;;7.82;;
77423;SDS011;66494;47.172;14.678;2023-12-20T04:17:20;16.40;;;7.88;;
77423;SDS011;66494;47.172;14.678;2023-12-20T04:19:20;27.00;;;9.57;;
77423;SDS011;66494;47.172;14.678;2023-12-20T04:21:20;26.88;;;10.10;;
77423;SDS011;66494;47.172;14.678;2023-12-20T04:23:21;16.27;;;7.50;;
77423;SDS011;66494;47.172;14.678;2023-12-20T04:25:22;15.50;;;8.50;;
77423;SDS011;66494;47.172;14.678;2023-12-20T04:27:22;16.30;;;7.22;;
77423;SDS011;66494;47.172;14.678;2023-12-20T04:29:23;17.77;;;8.00;;
77423;SDS011;66494;47.172;14.678;2023-12-20T04:31:24;12.77;;;6.63;;
77423;SDS011;66494;47.172;14.678;2023-12-20T04:33:24;19.33;;;9.73;;
77423;SDS011;66494;47.172;14.678;2023-12-20T04:35:24;17.02;;;9.20;;
77423;SDS011;66494;47.172;14.678;2023-12-20T04:37:29;22.35;;;9.82;;
77423;SDS011;66494;47.172;14.678;2023-12-20T04:39:30;31.42;;;12.13;;
77423;SDS011;66494;47.172;14.678;2023-12-20T04:41:30;20.95;;;7.82;;
77423;SDS011;66494;47.172;14.678;2023-12-20T04:43:30;22.35;;;8.70;;
77423;SDS011;66494;47.172;14.678;2023-12-20T04:45:31;14.50;;;7.50;;
77423;SDS011;66494;47.172;14.678;2023-12-20T04:47:31;18.05;;;9.32;;
77423;SDS011;66494;47.172;14.678;2023-12-20T04:49:32;11.98;;;6.88;;
77423;SDS011;66494;47.172;14.678;2023-12-20T04:51:33;11.40;;;6.15;;
77423;SDS011;66494;47.172;14.678;2023-12-20T04:53:34;11.97;;;6.70;;
77423;SDS011;66494;47.172;14.678;2023-12-20T04:55:34;10.23;;;5.95;;
77423;SDS011;66494;47.172;14.678;2023-12-20T04:57:35;10.10;;;6.22;;
77423;SDS011;66494;47.172;14.678;2023-12-20T04:59:35;7.73;;;4.17;;
77423;SDS011;66494;47.172;14.678;2023-12-20T05:01:35;6.07;;;3.90;;
77423;SDS011;66494;47.172;14.678;2023-12-20T05:03:36;15.27;;;6.77;;
77423;SDS011;66494;47.172;14.678;2023-12-20T05:05:37;13.45;;;6.88;;
77423;SDS011;66494;47.172;14.678;2023-12-20T05:06:38;13.35;;;7.28;;
77423;SDS011;66494;47.172;14.678;2023-12-20T05:08:38;15.05;;;8.52;;
77423;SDS011;66494;47.172;14.678;2023-12-20T05:10:38;13.57;;;8.77;;
77423;SDS011;66494;47.172;14.678;2023-12-20T05:11:40;15.30;;;8.95;;
77423;SDS011;66494;47.172;14.678;2023-12-20T05:13:40;16.23;;;8.50;;
77423;SDS011;66494;47.172;14.678;2023-12-20T05:15:41;14.15;;;7.47;;
77423;SDS011;66494;47.172;14.678;2023-12-20T05:17:41;14.23;;;7.40;;
77423;SDS011;66494;47.172;14.678;2023-12-20T05:18:45;14.73;;;8.73;;
77423;SDS011;66494;47.172;14.678;2023-12-20T05:20:45;17.53;;;6.97;;
77423;SDS011;66494;47.172;14.678;2023-12-20T05:22:46;18.37;;;8.23;;
77423;SDS011;66494;47.172;14.678;2023-12-20T05:23:47;20.85;;;10.00;;
77423;SDS011;66494;47.172;14.678;2023-12-20T05:25:47;16.13;;;8.98;;
77423;SDS011;66494;47.172;14.678;2023-12-20T05:27:49;17.00;;;8.93;;
77423;SDS011;66494;47.172;14.678;2023-12-20T05:29:49;16.73;;;8.38;;
77423;SDS011;66494;47.172;14.678;2023-12-20T05:31:50;13.03;;;6.40;;
77423;SDS011;66494;47.172;14.678;2023-12-20T05:33:51;12.35;;;6.95;;
77423;SDS011;66494;47.172;14.678;2023-12-20T05:35:51;12.65;;;8.00;;
77423;SDS011;66494;47.172;14.678;2023-12-20T05:37:52;19.17;;;9.25;;
77423;SDS011;66494;47.172;14.678;2023-12-20T05:39:53;16.98;;;8.95;;
77423;SDS011;66494;47.172;14.678;2023-12-20T05:41:53;15.80;;;8.30;;
77423;SDS011;66494;47.172;14.678;2023-12-20T05:43:54;14.18;;;6.65;;
77423;SDS011;66494;47.172;14.678;2023-12-20T05:45:54;11.38;;;7.55;;
77423;SDS011;66494;47.172;14.678;2023-12-20T05:47:55;12.73;;;7.25;;
77423;SDS011;66494;47.172;14.678;2023-12-20T05:49:55;18.48;;;8.23;;
77423;SDS011;66494;47.172;14.678;2023-12-20T05:51:56;14.15;;;7.70;;
77423;SDS011;66494;47.172;14.678;2023-12-20T05:53:56;13.38;;;6.78;;
77423;SDS011;66494;47.172;14.678;2023-12-20T05:55:58;10.98;;;5.97;;
77423;SDS011;66494;47.172;14.678;2023-12-20T05:57:58;16.25;;;7.80;;
77423;SDS011;66494;47.172;14.678;2023-12-20T05:59:59;17.35;;;7.22;;
77423;SDS011;66494;47.172;14.678;2023-12-20T06:01:59;11.85;;;6.82;;
77423;SDS011;66494;47.172;14.678;2023-12-20T06:03:59;13.80;;;7.25;;
77423;SDS011;66494;47.172;14.678;2023-12-20T06:06:04;15.48;;;8.18;;
77423;SDS011;66494;47.172;14.678;2023-12-20T06:07:05;15.88;;;9.27;;
77423;SDS011;66494;47.172;14.678;2023-12-20T06:09:05;13.15;;;7.63;;
77423;SDS011;66494;47.172;14.678;2023-12-20T06:11:06;13.23;;;8.20;;
77423;SDS011;66494;47.172;14.678;2023-12-20T06:13:06;20.92;;;9.73;;
77423;SDS011;66494;47.172;14.678;2023-12-20T06:15:07;11.50;;;6.38;;
77423;SDS011;66494;47.172;14.678;2023-12-20T06:17:07;14.52;;;8.27;;
77423;SDS011;66494;47.172;14.678;2023-12-20T06:19:07;13.60;;;7.75;;
77423;SDS011;66494;47.172;14.678;2023-12-20T06:21:08;14.48;;;8.38;;
77423;SDS011;66494;47.172;14.678;2023-12-20T06:22:12;14.18;;;8.23;;
77423;SDS011;66494;47.172;14.678;2023-12-20T06:24:13;11.38;;;5.70;;
77423;SDS011;66494;47.172;14.678;2023-12-20T06:26:13;13.27;;;7.13;;
77423;SDS011;66494;47.172;14.678;2023-12-20T06:28:14;13.93;;;8.32;;
77423;SDS011;66494;47.172;14.678;2023-12-20T06:30:15;13.57;;;6.60;;
77423;SDS011;66494;47.172;14.678;2023-12-20T06:32:15;18.30;;;6.57;;
77423;SDS011;66494;47.172;14.678;2023-12-20T06:34:16;15.55;;;8.20;;
77423;SDS011;66494;47.172;14.678;2023-12-20T06:36:16;17.75;;;8.55;;
77423;SDS011;66494;47.172;14.678;2023-12-20T06:38:17;13.43;;;8.52;;
77423;SDS011;66494;47.172;14.678;2023-12-20T06:40:18;17.63;;;8.87;;
77423;SDS011;66494;47.172;14.678;2023-12-20T06:42:18;15.32;;;8.18;;
77423;SDS011;66494;47.172;14.678;2023-12-20T06:44:18;15.95;;;9.07;;
77423;SDS011;66494;47.172;14.678;2023-12-20T06:46:19;17.15;;;8.52;;
77423;SDS011;66494;47.172;14.678;2023-12-20T06:48:19;14.85;;;8.45;;
77423;SDS011;66494;47.172;14.678;2023-12-20T06:49:20;14.15;;;8.02;;
77423;SDS011;66494;47.172;14.678;2023-12-20T06:51:21;17.48;;;8.05;;
77423;SDS011;66494;47.172;14.678;2023-12-20T06:52:25;18.27;;;8.95;;
77423;SDS011;66494;47.172;14.678;2023-12-20T06:54:25;16.42;;;10.13;;
77423;SDS011;66494;47.172;14.678;2023-12-20T06:56:26;22.48;;;10.30;;
77423;SDS011;66494;47.172;14.678;2023-12-20T06:58:26;15.88;;;8.23;;
77423;SDS011;66494;47.172;14.678;2023-12-20T07:00:26;14.73;;;8.52;;
77423;SDS011;66494;47.172;14.678;2023-12-20T07:02:27;13.10;;;8.35;;
77423;SDS011;66494;47.172;14.678;2023-12-20T07:03:30;14.00;;;8.38;;
77423;SDS011;66494;47.172;14.678;2023-12-20T07:05:30;19.10;;;8.85;;
77423;SDS011;66494;47.172;14.678;2023-12-20T07:07:31;15.45;;;8.25;;
77423;SDS011;66494;47.172;14.678;2023-12-20T07:09:31;11.85;;;7.57;;
77423;SDS011;66494;47.172;14.678;2023-12-20T07:11:31;22.27;;;10.00;;
77423;SDS011;66494;47.172;14.678;2023-12-20T07:13:32;20.40;;;9.82;;
77423;SDS011;66494;47.172;14.678;2023-12-20T07:15:32;17.95;;;9.75;;
77423;SDS011;66494;47.172;14.678;2023-12-20T07:17:33;17.02;;;9.63;;
77423;SDS011;66494;47.172;14.678;2023-12-20T07:19:33;20.90;;;11.10;;
77423;SDS011;66494;47.172;14.678;2023-12-20T07:21:34;20.52;;;11.02;;
77423;SDS011;66494;47.172;14.678;2023-12-20T07:23:34;16.27;;;9.80;;
77423;SDS011;66494;47.172;14.678;2023-12-20T07:25:34;15.93;;;9.65;;
77423;SDS011;66494;47.172;14.678;2023-12-20T07:27:35;16.75;;;9.93;;
77423;SDS011;66494;47.172;14.678;2023-12-20T07:29:35;16.05;;;9.85;;
77423;SDS011;66494;47.172;14.678;2023-12-20T07:31:36;15.15;;;8.32;;
77423;SDS011;66494;47.172;14.678;2023-12-20T07:33:36;16.80;;;9.57;;
77423;SDS011;66494;47.172;14.678;2023-12-20T07:35:37;16.48;;;9.98;;
77423;SDS011;66494;47.172;14.678;2023-12-20T07:37:37;15.13;;;9.80;;
77423;SDS011;66494;47.172;14.678;2023-12-20T07:39:39;15.10;;;9.23;;
77423;SDS011;66494;47.172;14.678;2023-12-20T07:40:40;11.23;;;7.55;;
77423;SDS011;66494;47.172;14.678;2023-12-20T07:42:40;14.50;;;8.02;;
77423;SDS011;66494;47.172;14.678;2023-12-20T07:44:40;13.18;;;7.97;;
77423;SDS011;66494;47.172;14.678;2023-12-20T07:46:41;14.07;;;8.60;;
77423;SDS011;66494;47.172;14.678;2023-12-20T07:48:42;17.25;;;8.52;;
77423;SDS011;66494;47.172;14.678;2023-12-20T07:50:42;14.50;;;8.35;;
77423;SDS011;66494;47.172;14.678;2023-12-20T07:52:43;13.43;;;8.40;;
77423;SDS011;66494;47.172;14.678;2023-12-20T07:54:43;16.65;;;8.32;;
77423;SDS011;66494;47.172;14.678;2023-12-20T07:56:43;13.52;;;7.32;;
77423;SDS011;66494;47.172;14.678;2023-12-20T07:57:44;15.95;;;7.30;;
77423;SDS011;66494;47.172;14.678;2023-12-20T07:59:44;18.00;;;9.27;;
77423;SDS011;66494;47.172;14.678;2023-12-20T08:01:44;24.60;;;12.93;;
77423;SDS011;66494;47.172;14.678;2023-12-20T08:02:45;31.70;;;16.63;;
77423;SDS011;66494;47.172;14.678;2023-12-20T08:04:46;22.38;;;13.10;;
77423;SDS011;66494;47.172;14.678;2023-12-20T08:06:46;21.67;;;11.82;;
77423;SDS011;66494;47.172;14.678;2023-12-20T08:07:46;18.73;;;12.20;;
77423;SDS011;66494;47.172;14.678;2023-12-20T08:09:47;18.63;;;9.57;;
77423;SDS011;66494;47.172;14.678;2023-12-20T08:10:47;18.17;;;11.50;;
77423;SDS011;66494;47.172;14.678;2023-12-20T08:12:47;14.82;;;9.50;;
77423;SDS011;66494;47.172;14.678;2023-12-20T08:13:48;17.02;;;9.05;;
77423;SDS011;66494;47.172;14.678;2023-12-20T08:15:48;20.00;;;10.10;;
77423;SDS011;66494;47.172;14.678;2023-12-20T08:17:49;19.60;;;10.30;;
77423;SDS011;66494;47.172;14.678;2023-12-20T08:18:50;19.10;;;10.63;;
77423;SDS011;66494;47.172;14.678;2023-12-20T08:19:51;18.90;;;10.80;;
77423;SDS011;66494;47.172;14.678;2023-12-20T08:21:53;27.98;;;14.13;;
77423;SDS011;66494;47.172;14.678;2023-12-20T08:22:54;24.58;;;14.98;;
77423;SDS011;66494;47.172;14.678;2023-12-20T08:24:54;21.90;;;13.98;;
77423;SDS011;66494;47.172;14.678;2023-12-20T08:25:54;24.45;;;15.20;;
77423;SDS011;66494;47.172;14.678;2023-12-20T08:27:55;24.85;;;13.15;;
77423;SDS011;66494;47.172;14.678;2023-12-20T08:28:55;17.83;;;11.75;;
77423;SDS011;66494;47.172;14.678;2023-12-20T08:30:55;15.82;;;8.93;;
77423;SDS011;66494;47.172;14.678;2023-12-20T08:31:56;19.15;;;10.07;;
77423;SDS011;66494;47.172;14.678;2023-12-20T08:33:56;21.83;;;11.05;;
77423;SDS011;66494;47.172;14.678;2023-12-20T08:35:57;22.70;;;11.82;;
77423;SDS011;66494;47.172;14.678;2023-12-20T08:37:58;21.60;;;11.60;;
77423;SDS011;66494;47.172;14.678;2023-12-20T08:38:58;20.02;;;12.50;;
77423;SDS011;66494;47.172;14.678;2023-12-20T08:40:03;22.75;;;11.55;;
77423;SDS011;66494;47.172;14.678;2023-12-20T08:41:04;19.42;;;12.23;;
77423;SDS011;66494;47.172;14.678;2023-12-20T08:42:07;23.05;;;12.30;;
77423;SDS011;66494;47.172;14.678;2023-12-20T08:43:07;29.20;;;13.90;;
77423;SDS011;66494;47.172;14.678;2023-12-20T08:44:08;47.97;;;21.23;;
77423;SDS011;66494;47.172;14.678;2023-12-20T08:46:08;56.03;;;24.57;;
77423;SDS011;66494;47.172;14.678;2023-12-20T08:47:12;60.08;;;26.92;;
77423;SDS011;66494;47.172;14.678;2023-12-20T08:48:13;64.35;;;28.75;;
77423;SDS011;66494;47.172;14.678;2023-12-20T08:50:14;70.10;;;30.65;;
77423;SDS011;66494;47.172;14.678;2023-12-20T08:51:15;63.45;;;31.48;;
77423;SDS011;66494;47.172;14.678;2023-12-20T08:52:15;59.30;;;31.63;;
77423;SDS011;66494;47.172;14.678;2023-12-20T08:54:16;58.70;;;30.95;;
77423;SDS011;66494;47.172;14.678;2023-12-20T08:55:17;66.20;;;35.10;;
77423;SDS011;66494;47.172;14.678;2023-12-20T08:57:19;51.43;;;26.37;;
77423;SDS011;66494;47.172;14.678;2023-12-20T08:58:20;48.53;;;25.00;;
77423;SDS011;66494;47.172;14.678;2023-12-20T08:59:20;43.13;;;24.33;;
77423;SDS011;66494;47.172;14.678;2023-12-20T09:00:21;36.22;;;19.98;;
77423;SDS011;66494;47.172;14.678;2023-12-20T09:01:24;33.40;;;16.88;;
77423;SDS011;66494;47.172;14.678;2023-12-20T09:02:24;25.08;;;16.67;;
77423;SDS011;66494;47.172;14.678;2023-12-20T09:04:24;25.55;;;13.10;;
77423;SDS011;66494;47.172;14.678;2023-12-20T09:05:25;25.73;;;14.00;;
77423;SDS011;66494;47.172;14.678;2023-12-20T09:07:26;22.23;;;12.63;;
77423;SDS011;66494;47.172;14.678;2023-12-20T09:08:26;34.55;;;13.15;;
77423;SDS011;66494;47.172;14.678;2023-12-20T09:10:26;21.75;;;11.98;;
77423;SDS011;66494;47.172;14.678;2023-12-20T09:11:27;22.52;;;12.95;;
77423;SDS011;66494;47.172;14.678;2023-12-20T09:13:27;19.83;;;11.10;;
77423;SDS011;66494;47.172;14.678;2023-12-20T09:15:28;19.00;;;8.17;;
77423;SDS011;66494;47.172;14.678;2023-12-20T09:16:30;18.50;;;10.57;;
77423;SDS011;66494;47.172;14.678;2023-12-20T09:17:31;20.48;;;12.13;;
77423;SDS011;66494;47.172;14.678;2023-12-20T09:18:31;21.10;;;13.43;;
77423;SDS011;66494;47.172;14.678;2023-12-20T09:20:32;23.23;;;13.02;;
77423;SDS011;66494;47.172;14.678;2023-12-20T09:21:32;24.55;;;15.07;;
77423;SDS011;66494;47.172;14.678;2023-12-20T09:23:33;24.52;;;13.57;;
77423;SDS011;66494;47.172;14.678;2023-12-20T09:24:33;27.67;;;14.65;;
77423;SDS011;66494;47.172;14.678;2023-12-20T09:26:34;23.98;;;13.93;;
77423;SDS011;66494;47.172;14.678;2023-12-20T09:28:34;22.83;;;13.20;;
77423;SDS011;66494;47.172;14.678;2023-12-20T09:29:36;20.33;;;13.30;;
77423;SDS011;66494;47.172;14.678;2023-12-20T09:30:37;22.77;;;13.80;;
77423;SDS011;66494;47.172;14.678;2023-12-20T09:31:39;21.40;;;12.20;;
77423;SDS011;66494;47.172;14.678;2023-12-20T09:32:39;25.52;;;13.10;;
77423;SDS011;66494;47.172;14.678;2023-12-20T09:34:40;21.88;;;12.60;;
77423;SDS011;66494;47.172;14.678;2023-12-20T09:35:42;22.60;;;12.45;;
77423;SDS011;66494;47.172;14.678;2023-12-20T09:36:42;22.52;;;12.20;;
77423;SDS011;66494;47.172;14.678;2023-12-20T09:37:46;18.85;;;11.43;;
77423;SDS011;66494;47.172;14.678;2023-12-20T09:38:46;19.02;;;10.93;;
77423;SDS011;66494;47.172;14.678;2023-12-20T09:40:47;17.08;;;10.32;;
77423;SDS011;66494;47.172;14.678;2023-12-20T09:42:01;20.73;;;11.38;;
77423;SDS011;66494;47.172;14.678;2023-12-20T09:43:06;18.65;;;10.80;;
77423;SDS011;66494;47.172;14.678;2023-12-20T09:44:09;16.73;;;9.77;;
77423;SDS011;66494;47.172;14.678;2023-12-20T09:45:13;15.18;;;10.13;;
77423;SDS011;66494;47.172;14.678;2023-12-20T09:46:14;19.48;;;10.88;;
77423;SDS011;66494;47.172;14.678;2023-12-20T09:47:19;18.60;;;12.00;;
77423;SDS011;66494;47.172;14.678;2023-12-20T09:48:20;20.90;;;12.02;;
77423;SDS011;66494;47.172;14.678;2023-12-20T09:49:21;17.55;;;11.63;;
77423;SDS011;66494;47.172;14.678;2023-12-20T09:50:22;19.48;;;11.30;;
77423;SDS011;66494;47.172;14.678;2023-12-20T09:51:22;16.65;;;10.65;;
77423;SDS011;66494;47.172;14.678;2023-12-20T09:53:23;17.13;;;9.70;;
77423;SDS011;66494;47.172;14.678;2023-12-20T09:54:29;21.50;;;11.70;;
77423;SDS011;66494;47.172;14.678;2023-12-20T09:55:30;25.25;;;12.57;;
77423;SDS011;66494;47.172;14.678;2023-12-20T09:56:32;24.52;;;13.45;;
77423;SDS011;66494;47.172;14.678;2023-12-20T09:57:33;23.75;;;14.43;;
77423;SDS011;66494;47.172;14.678;2023-12-20T09:59:33;23.33;;;13.27;;
77423;SDS011;66494;47.172;14.678;2023-12-20T10:01:34;19.23;;;10.63;;
77423;SDS011;66494;47.172;14.678;2023-12-20T10:02:35;20.55;;;10.90;;
77423;SDS011;66494;47.172;14.678;2023-12-20T10:03:38;14.90;;;9.55;;
77423;SDS011;66494;47.172;14.678;2023-12-20T10:04:47;17.15;;;11.13;;
77423;SDS011;66494;47.172;14.678;2023-12-20T10:05:51;17.38;;;9.98;;
77423;SDS011;66494;47.172;14.678;2023-12-20T10:06:52;17.02;;;10.73;;
77423;SDS011;66494;47.172;14.678;2023-12-20T10:07:52;14.68;;;10.55;;
77423;SDS011;66494;47.172;14.678;2023-12-20T10:09:54;15.65;;;9.25;;
77423;SDS011;66494;47.172;14.678;2023-12-20T10:10:54;17.50;;;10.18;;
77423;SDS011;66494;47.172;14.678;2023-12-20T10:11:55;18.42;;;10.68;;
77423;SDS011;66494;47.172;14.678;2023-12-20T10:13:03;14.77;;;10.70;;
77423;SDS011;66494;47.172;14.678;2023-12-20T10:14:04;17.60;;;10.45;;
77423;SDS011;66494;47.172;14.678;2023-12-20T10:15:05;14.80;;;9.75;;